sensor_id;sensor_type;location;lat;lon;timestamp;P1;durP1;ratioP1;P2;durP2;ratioP2
9892;SDS011;4985;49.092;8.542;2022-10-04T00:00:43;3.30;;;2.27;;
9892;SDS011;4985;49.092;8.542;2022-10-04T00:03:12;3.93;;;2.00;;
9892;SDS011;4985;49.092;8.542;2022-10-04T00:05:49;2.80;;;2.20;;
9892;SDS011;4985;49.092;8.542;2022-10-04T00:08:22;5.53;;;2.60;;
9892;SDS011;4985;49.092;8.542;2022-10-04T00:11:02;4.33;;;2.03;;
9892;SDS011;4985;49.092;8.542;2022-10-04T00:13:31;3.07;;;2.10;;
9892;SDS011;4985;49.092;8.542;2022-10-04T00:16:00;2.73;;;2.20;;
9892;SDS011;4985;49.092;8.542;2022-10-04T00:18:28;1.97;;;1.77;;
9892;SDS011;4985;49.092;8.542;2022-10-04T00:21:02;3.73;;;2.67;;
9892;SDS011;4985;49.092;8.542;2022-10-04T00:23:46;5.80;;;2.30;;
9892;SDS011;4985;49.092;8.542;2022-10-04T00:29:22;4.33;;;2.57;;
9892;SDS011;4985;49.092;8.542;2022-10-04T00:32:22;3.10;;;2.50;;
9892;SDS011;4985;49.092;8.542;2022-10-04T00:34:51;5.13;;;2.17;;
9892;SDS011;4985;49.092;8.542;2022-10-04T00:37:19;3.40;;;1.93;;
9892;SDS011;4985;49.092;8.542;2022-10-04T00:39:54;3.77;;;2.20;;
9892;SDS011;4985;49.092;8.542;2022-10-04T00:42:35;2.77;;;2.07;;
9892;SDS011;4985;49.092;8.542;2022-10-04T00:48:14;5.17;;;2.07;;
9892;SDS011;4985;49.092;8.542;2022-10-04T00:50:59;5.77;;;2.33;;
9892;SDS011;4985;49.092;8.542;2022-10-04T00:53:40;5.33;;;2.60;;
9892;SDS011;4985;49.092;8.542;2022-10-04T00:56:13;4.73;;;2.30;;
9892;SDS011;4985;49.092;8.542;2022-10-04T00:58:47;4.47;;;2.33;;
9892;SDS011;4985;49.092;8.542;2022-10-04T01:01:31;4.33;;;2.87;;
9892;SDS011;4985;49.092;8.542;2022-10-04T01:04:01;4.13;;;2.53;;
9892;SDS011;4985;49.092;8.542;2022-10-04T01:06:32;5.70;;;2.40;;
9892;SDS011;4985;49.092;8.542;2022-10-04T01:09:04;2.87;;;2.33;;
9892;SDS011;4985;49.092;8.542;2022-10-04T01:11:34;5.63;;;2.53;;
9892;SDS011;4985;49.092;8.542;2022-10-04T01:14:03;3.73;;;2.77;;
9892;SDS011;4985;49.092;8.542;2022-10-04T01:16:37;3.13;;;2.43;;
9892;SDS011;4985;49.092;8.542;2022-10-04T01:21:57;6.20;;;3.00;;
9892;SDS011;4985;49.092;8.542;2022-10-04T01:24:33;3.80;;;2.80;;
9892;SDS011;4985;49.092;8.542;2022-10-04T01:27:01;3.63;;;3.03;;
9892;SDS011;4985;49.092;8.542;2022-10-04T01:29:28;3.87;;;2.67;;
9892;SDS011;4985;49.092;8.542;2022-10-04T01:31:57;3.47;;;2.67;;
9892;SDS011;4985;49.092;8.542;2022-10-04T01:34:25;6.77;;;2.70;;
9892;SDS011;4985;49.092;8.542;2022-10-04T01:36:54;6.13;;;2.67;;
9892;SDS011;4985;49.092;8.542;2022-10-04T01:39:23;3.97;;;2.70;;
9892;SDS011;4985;49.092;8.542;2022-10-04T01:41:53;4.40;;;2.80;;
9892;SDS011;4985;49.092;8.542;2022-10-04T01:44:26;5.23;;;2.70;;
9892;SDS011;4985;49.092;8.542;2022-10-04T01:46:58;6.33;;;3.00;;
9892;SDS011;4985;49.092;8.542;2022-10-04T01:49:29;3.73;;;2.73;;
9892;SDS011;4985;49.092;8.542;2022-10-04T01:52:00;10.37;;;2.77;;
9892;SDS011;4985;49.092;8.542;2022-10-04T01:54:32;4.00;;;2.83;;
9892;SDS011;4985;49.092;8.542;2022-10-04T01:57:03;2.77;;;2.47;;
9892;SDS011;4985;49.092;8.542;2022-10-04T01:59:37;4.00;;;2.67;;
9892;SDS011;4985;49.092;8.542;2022-10-04T02:02:09;3.80;;;2.53;;
9892;SDS011;4985;49.092;8.542;2022-10-04T02:04:43;4.20;;;2.73;;
9892;SDS011;4985;49.092;8.542;2022-10-04T02:07:17;4.43;;;2.70;;
9892;SDS011;4985;49.092;8.542;2022-10-04T02:09:45;3.43;;;2.37;;
9892;SDS011;4985;49.092;8.542;2022-10-04T02:12:15;5.30;;;3.03;;
9892;SDS011;4985;49.092;8.542;2022-10-04T02:14:43;4.47;;;2.87;;
9892;SDS011;4985;49.092;8.542;2022-10-04T02:17:17;5.37;;;3.10;;
9892;SDS011;4985;49.092;8.542;2022-10-04T02:19:45;4.67;;;2.93;;
9892;SDS011;4985;49.092;8.542;2022-10-04T02:22:13;4.10;;;2.60;;
9892;SDS011;4985;49.092;8.542;2022-10-04T02:24:42;3.30;;;2.80;;
9892;SDS011;4985;49.092;8.542;2022-10-04T02:27:10;3.40;;;3.03;;
9892;SDS011;4985;49.092;8.542;2022-10-04T02:29:38;4.03;;;2.83;;
9892;SDS011;4985;49.092;8.542;2022-10-04T02:32:06;3.90;;;2.87;;
9892;SDS011;4985;49.092;8.542;2022-10-04T02:34:51;3.63;;;3.03;;
9892;SDS011;4985;49.092;8.542;2022-10-04T02:37:20;5.33;;;2.80;;
9892;SDS011;4985;49.092;8.542;2022-10-04T02:39:48;4.33;;;2.90;;
9892;SDS011;4985;49.092;8.542;2022-10-04T02:42:21;4.10;;;2.90;;
9892;SDS011;4985;49.092;8.542;2022-10-04T02:45:01;3.77;;;2.43;;
9892;SDS011;4985;49.092;8.542;2022-10-04T02:47:36;6.80;;;3.03;;
9892;SDS011;4985;49.092;8.542;2022-10-04T02:50:15;4.33;;;2.90;;
9892;SDS011;4985;49.092;8.542;2022-10-04T02:52:50;4.60;;;2.77;;
9892;SDS011;4985;49.092;8.542;2022-10-04T02:55:21;4.30;;;2.57;;
9892;SDS011;4985;49.092;8.542;2022-10-04T02:57:50;3.67;;;2.70;;
9892;SDS011;4985;49.092;8.542;2022-10-04T03:00:20;7.00;;;3.10;;
9892;SDS011;4985;49.092;8.542;2022-10-04T03:03:12;4.30;;;2.43;;
9892;SDS011;4985;49.092;8.542;2022-10-04T03:05:43;5.97;;;2.47;;
9892;SDS011;4985;49.092;8.542;2022-10-04T03:08:18;3.97;;;2.67;;
9892;SDS011;4985;49.092;8.542;2022-10-04T03:10:45;4.90;;;2.90;;
9892;SDS011;4985;49.092;8.542;2022-10-04T03:13:13;6.57;;;2.87;;
9892;SDS011;4985;49.092;8.542;2022-10-04T03:15:42;2.70;;;2.30;;
9892;SDS011;4985;49.092;8.542;2022-10-04T03:18:09;5.00;;;2.73;;
9892;SDS011;4985;49.092;8.542;2022-10-04T03:20:36;3.63;;;2.53;;
9892;SDS011;4985;49.092;8.542;2022-10-04T03:23:04;4.53;;;2.60;;
9892;SDS011;4985;49.092;8.542;2022-10-04T03:25:34;4.47;;;3.37;;
9892;SDS011;4985;49.092;8.542;2022-10-04T03:28:08;3.67;;;3.10;;
9892;SDS011;4985;49.092;8.542;2022-10-04T03:30:35;3.43;;;2.80;;
9892;SDS011;4985;49.092;8.542;2022-10-04T03:33:03;4.10;;;2.63;;
9892;SDS011;4985;49.092;8.542;2022-10-04T03:35:31;4.00;;;2.67;;
9892;SDS011;4985;49.092;8.542;2022-10-04T03:38:03;4.50;;;2.63;;
9892;SDS011;4985;49.092;8.542;2022-10-04T03:40:33;2.80;;;2.50;;
9892;SDS011;4985;49.092;8.542;2022-10-04T03:43:03;3.70;;;2.57;;
9892;SDS011;4985;49.092;8.542;2022-10-04T03:45:30;4.73;;;2.80;;
9892;SDS011;4985;49.092;8.542;2022-10-04T03:48:00;3.10;;;2.40;;
9892;SDS011;4985;49.092;8.542;2022-10-04T03:50:32;3.17;;;2.37;;
9892;SDS011;4985;49.092;8.542;2022-10-04T03:53:04;4.57;;;2.67;;
9892;SDS011;4985;49.092;8.542;2022-10-04T03:55:34;4.50;;;2.87;;
9892;SDS011;4985;49.092;8.542;2022-10-04T03:58:05;4.03;;;2.80;;
9892;SDS011;4985;49.092;8.542;2022-10-04T04:00:35;4.30;;;2.67;;
9892;SDS011;4985;49.092;8.542;2022-10-04T04:03:11;4.73;;;2.53;;
9892;SDS011;4985;49.092;8.542;2022-10-04T04:05:41;3.10;;;2.50;;
9892;SDS011;4985;49.092;8.542;2022-10-04T04:08:12;3.70;;;2.60;;
9892;SDS011;4985;49.092;8.542;2022-10-04T04:10:44;7.47;;;3.00;;
9892;SDS011;4985;49.092;8.542;2022-10-04T04:13:17;3.07;;;2.70;;
9892;SDS011;4985;49.092;8.542;2022-10-04T04:15:49;3.53;;;2.70;;
9892;SDS011;4985;49.092;8.542;2022-10-04T04:18:18;4.03;;;2.90;;
9892;SDS011;4985;49.092;8.542;2022-10-04T04:20:47;4.23;;;2.67;;
9892;SDS011;4985;49.092;8.542;2022-10-04T04:23:19;4.20;;;2.70;;
9892;SDS011;4985;49.092;8.542;2022-10-04T04:25:52;3.60;;;2.40;;
9892;SDS011;4985;49.092;8.542;2022-10-04T04:28:22;3.83;;;2.80;;
9892;SDS011;4985;49.092;8.542;2022-10-04T04:30:52;4.93;;;2.63;;
9892;SDS011;4985;49.092;8.542;2022-10-04T04:33:25;3.37;;;2.53;;
9892;SDS011;4985;49.092;8.542;2022-10-04T04:36:02;6.07;;;2.83;;
9892;SDS011;4985;49.092;8.542;2022-10-04T04:38:31;9.17;;;2.63;;
9892;SDS011;4985;49.092;8.542;2022-10-04T04:41:05;3.90;;;2.80;;
9892;SDS011;4985;49.092;8.542;2022-10-04T04:43:34;4.10;;;2.93;;
9892;SDS011;4985;49.092;8.542;2022-10-04T04:46:01;4.27;;;2.77;;
9892;SDS011;4985;49.092;8.542;2022-10-04T04:48:34;4.70;;;2.60;;
9892;SDS011;4985;49.092;8.542;2022-10-04T04:51:02;3.87;;;2.60;;
9892;SDS011;4985;49.092;8.542;2022-10-04T04:53:30;6.47;;;2.63;;
9892;SDS011;4985;49.092;8.542;2022-10-04T04:55:57;2.47;;;2.13;;
9892;SDS011;4985;49.092;8.542;2022-10-04T04:58:27;4.60;;;2.73;;
9892;SDS011;4985;49.092;8.542;2022-10-04T05:01:00;4.67;;;2.50;;
9892;SDS011;4985;49.092;8.542;2022-10-04T05:03:31;2.70;;;2.47;;
9892;SDS011;4985;49.092;8.542;2022-10-04T05:05:59;2.80;;;2.50;;
9892;SDS011;4985;49.092;8.542;2022-10-04T05:08:29;4.70;;;3.03;;
9892;SDS011;4985;49.092;8.542;2022-10-04T05:10:59;4.20;;;2.67;;
9892;SDS011;4985;49.092;8.542;2022-10-04T05:13:30;3.67;;;2.83;;
9892;SDS011;4985;49.092;8.542;2022-10-04T05:16:04;4.20;;;3.20;;
9892;SDS011;4985;49.092;8.542;2022-10-04T05:18:37;3.77;;;2.87;;
9892;SDS011;4985;49.092;8.542;2022-10-04T05:21:06;4.70;;;3.17;;
9892;SDS011;4985;49.092;8.542;2022-10-04T05:23:38;3.30;;;2.53;;
9892;SDS011;4985;49.092;8.542;2022-10-04T05:26:08;4.00;;;3.03;;
9892;SDS011;4985;49.092;8.542;2022-10-04T05:28:36;4.43;;;2.83;;
9892;SDS011;4985;49.092;8.542;2022-10-04T05:33:55;3.80;;;2.87;;
9892;SDS011;4985;49.092;8.542;2022-10-04T05:36:33;3.33;;;2.97;;
9892;SDS011;4985;49.092;8.542;2022-10-04T05:39:11;3.50;;;2.63;;
9892;SDS011;4985;49.092;8.542;2022-10-04T05:41:48;3.90;;;3.13;;
9892;SDS011;4985;49.092;8.542;2022-10-04T05:44:25;5.13;;;3.13;;
9892;SDS011;4985;49.092;8.542;2022-10-04T05:46:54;4.13;;;3.07;;
9892;SDS011;4985;49.092;8.542;2022-10-04T05:49:22;3.87;;;3.03;;
9892;SDS011;4985;49.092;8.542;2022-10-04T05:51:54;3.97;;;2.83;;
9892;SDS011;4985;49.092;8.542;2022-10-04T05:54:25;4.70;;;2.97;;
9892;SDS011;4985;49.092;8.542;2022-10-04T05:59:58;3.73;;;3.23;;
9892;SDS011;4985;49.092;8.542;2022-10-04T06:02:35;7.33;;;3.83;;
9892;SDS011;4985;49.092;8.542;2022-10-04T06:05:11;5.20;;;3.83;;
9892;SDS011;4985;49.092;8.542;2022-10-04T06:07:42;5.87;;;3.13;;
9892;SDS011;4985;49.092;8.542;2022-10-04T06:13:14;3.97;;;3.17;;
9892;SDS011;4985;49.092;8.542;2022-10-04T06:15:55;4.70;;;2.60;;
9892;SDS011;4985;49.092;8.542;2022-10-04T06:18:30;3.83;;;3.00;;
9892;SDS011;4985;49.092;8.542;2022-10-04T06:21:12;4.93;;;2.63;;
9892;SDS011;4985;49.092;8.542;2022-10-04T06:23:47;3.37;;;2.47;;
9892;SDS011;4985;49.092;8.542;2022-10-04T06:26:20;3.00;;;2.33;;
9892;SDS011;4985;49.092;8.542;2022-10-04T06:28:51;5.93;;;2.67;;
9892;SDS011;4985;49.092;8.542;2022-10-04T06:31:35;4.23;;;2.43;;
9892;SDS011;4985;49.092;8.542;2022-10-04T06:34:24;4.53;;;2.70;;
9892;SDS011;4985;49.092;8.542;2022-10-04T06:37:09;5.13;;;2.57;;
9892;SDS011;4985;49.092;8.542;2022-10-04T06:39:55;4.93;;;2.53;;
9892;SDS011;4985;49.092;8.542;2022-10-04T06:45:27;4.33;;;2.57;;
9892;SDS011;4985;49.092;8.542;2022-10-04T06:48:10;3.27;;;2.47;;
9892;SDS011;4985;49.092;8.542;2022-10-04T06:50:52;3.33;;;2.50;;
9892;SDS011;4985;49.092;8.542;2022-10-04T06:53:25;5.63;;;2.60;;
9892;SDS011;4985;49.092;8.542;2022-10-04T06:56:13;4.40;;;2.33;;
9892;SDS011;4985;49.092;8.542;2022-10-04T06:59:01;3.53;;;2.63;;
9892;SDS011;4985;49.092;8.542;2022-10-04T07:01:45;2.67;;;2.40;;
9892;SDS011;4985;49.092;8.542;2022-10-04T07:04:19;3.57;;;2.43;;
9892;SDS011;4985;49.092;8.542;2022-10-04T07:07:03;3.07;;;2.40;;
9892;SDS011;4985;49.092;8.542;2022-10-04T07:09:51;2.83;;;2.33;;
9892;SDS011;4985;49.092;8.542;2022-10-04T07:12:23;2.80;;;2.37;;
9892;SDS011;4985;49.092;8.542;2022-10-04T07:14:50;6.53;;;2.70;;
9892;SDS011;4985;49.092;8.542;2022-10-04T07:17:24;5.23;;;2.67;;
9892;SDS011;4985;49.092;8.542;2022-10-04T07:19:55;3.03;;;2.50;;
9892;SDS011;4985;49.092;8.542;2022-10-04T07:22:27;4.07;;;2.77;;
9892;SDS011;4985;49.092;8.542;2022-10-04T07:24:58;2.80;;;2.20;;
9892;SDS011;4985;49.092;8.542;2022-10-04T07:27:44;3.93;;;2.67;;
9892;SDS011;4985;49.092;8.542;2022-10-04T07:30:40;5.17;;;2.97;;
9892;SDS011;4985;49.092;8.542;2022-10-04T07:33:12;4.07;;;2.80;;
9892;SDS011;4985;49.092;8.542;2022-10-04T07:35:43;4.30;;;2.63;;
9892;SDS011;4985;49.092;8.542;2022-10-04T07:38:14;4.10;;;2.07;;
9892;SDS011;4985;49.092;8.542;2022-10-04T07:40:55;3.83;;;2.30;;
9892;SDS011;4985;49.092;8.542;2022-10-04T07:43:29;3.03;;;2.33;;
9892;SDS011;4985;49.092;8.542;2022-10-04T07:46:00;3.83;;;2.60;;
9892;SDS011;4985;49.092;8.542;2022-10-04T07:48:30;2.70;;;2.27;;
9892;SDS011;4985;49.092;8.542;2022-10-04T07:50:59;6.93;;;3.20;;
9892;SDS011;4985;49.092;8.542;2022-10-04T07:53:36;2.97;;;2.63;;
9892;SDS011;4985;49.092;8.542;2022-10-04T07:56:09;3.60;;;2.60;;
9892;SDS011;4985;49.092;8.542;2022-10-04T07:58:45;3.97;;;2.77;;
9892;SDS011;4985;49.092;8.542;2022-10-04T08:01:25;6.50;;;2.87;;
9892;SDS011;4985;49.092;8.542;2022-10-04T08:04:01;4.70;;;3.17;;
9892;SDS011;4985;49.092;8.542;2022-10-04T08:06:36;5.20;;;3.97;;
9892;SDS011;4985;49.092;8.542;2022-10-04T08:09:20;5.30;;;3.30;;
9892;SDS011;4985;49.092;8.542;2022-10-04T08:11:57;4.20;;;2.70;;
9892;SDS011;4985;49.092;8.542;2022-10-04T08:14:35;4.20;;;2.63;;
9892;SDS011;4985;49.092;8.542;2022-10-04T08:17:16;3.70;;;3.10;;
9892;SDS011;4985;49.092;8.542;2022-10-04T08:20:04;4.13;;;2.53;;
9892;SDS011;4985;49.092;8.542;2022-10-04T08:22:49;3.97;;;2.47;;
9892;SDS011;4985;49.092;8.542;2022-10-04T08:25:26;5.10;;;2.87;;
9892;SDS011;4985;49.092;8.542;2022-10-04T08:28:01;3.70;;;2.80;;
9892;SDS011;4985;49.092;8.542;2022-10-04T08:31:04;4.03;;;2.50;;
9892;SDS011;4985;49.092;8.542;2022-10-04T08:33:51;4.93;;;2.67;;
9892;SDS011;4985;49.092;8.542;2022-10-04T08:36:31;3.60;;;2.37;;
9892;SDS011;4985;49.092;8.542;2022-10-04T08:39:15;5.93;;;2.50;;
9892;SDS011;4985;49.092;8.542;2022-10-04T08:41:57;3.20;;;2.43;;
9892;SDS011;4985;49.092;8.542;2022-10-04T08:47:56;3.63;;;2.33;;
9892;SDS011;4985;49.092;8.542;2022-10-04T08:50:59;2.60;;;2.20;;
9892;SDS011;4985;49.092;8.542;2022-10-04T08:59:33;3.00;;;2.33;;
9892;SDS011;4985;49.092;8.542;2022-10-04T09:08:27;4.00;;;2.87;;
9892;SDS011;4985;49.092;8.542;2022-10-04T09:11:24;4.03;;;2.73;;
9892;SDS011;4985;49.092;8.542;2022-10-04T09:14:10;3.60;;;2.60;;
9892;SDS011;4985;49.092;8.542;2022-10-04T09:16:52;4.13;;;2.53;;
9892;SDS011;4985;49.092;8.542;2022-10-04T09:19:35;3.63;;;2.13;;
9892;SDS011;4985;49.092;8.542;2022-10-04T09:22:16;3.07;;;2.03;;
9892;SDS011;4985;49.092;8.542;2022-10-04T09:25:03;3.73;;;2.40;;
9892;SDS011;4985;49.092;8.542;2022-10-04T09:27:56;4.77;;;2.53;;
9892;SDS011;4985;49.092;8.542;2022-10-04T09:30:39;3.87;;;2.67;;
9892;SDS011;4985;49.092;8.542;2022-10-04T09:33:24;5.57;;;2.60;;
9892;SDS011;4985;49.092;8.542;2022-10-04T09:39:13;3.50;;;2.40;;
9892;SDS011;4985;49.092;8.542;2022-10-04T09:42:04;4.83;;;2.80;;
9892;SDS011;4985;49.092;8.542;2022-10-04T09:45:10;3.00;;;2.70;;
9892;SDS011;4985;49.092;8.542;2022-10-04T09:47:54;3.67;;;2.07;;
9892;SDS011;4985;49.092;8.542;2022-10-04T09:50:38;5.10;;;2.80;;
9892;SDS011;4985;49.092;8.542;2022-10-04T09:53:27;4.03;;;2.90;;
9892;SDS011;4985;49.092;8.542;2022-10-04T09:56:08;6.53;;;2.90;;
9892;SDS011;4985;49.092;8.542;2022-10-04T09:59:03;4.83;;;2.43;;
9892;SDS011;4985;49.092;8.542;2022-10-04T10:04:54;6.40;;;2.53;;
9892;SDS011;4985;49.092;8.542;2022-10-04T10:07:37;5.70;;;2.50;;
9892;SDS011;4985;49.092;8.542;2022-10-04T10:10:15;3.43;;;2.40;;
9892;SDS011;4985;49.092;8.542;2022-10-04T10:13:13;4.83;;;2.43;;
9892;SDS011;4985;49.092;8.542;2022-10-04T10:16:10;4.07;;;2.67;;
9892;SDS011;4985;49.092;8.542;2022-10-04T10:18:52;4.30;;;2.57;;
9892;SDS011;4985;49.092;8.542;2022-10-04T10:21:35;3.70;;;2.20;;
9892;SDS011;4985;49.092;8.542;2022-10-04T10:24:21;4.43;;;2.57;;
9892;SDS011;4985;49.092;8.542;2022-10-04T10:30:07;5.23;;;3.10;;
9892;SDS011;4985;49.092;8.542;2022-10-04T10:38:49;3.07;;;2.43;;
9892;SDS011;4985;49.092;8.542;2022-10-04T10:41:35;6.93;;;2.90;;
9892;SDS011;4985;49.092;8.542;2022-10-04T10:44:21;4.03;;;2.60;;
9892;SDS011;4985;49.092;8.542;2022-10-04T10:47:20;3.33;;;2.40;;
9892;SDS011;4985;49.092;8.542;2022-10-04T10:50:05;3.00;;;2.30;;
9892;SDS011;4985;49.092;8.542;2022-10-04T10:52:58;5.90;;;3.00;;
9892;SDS011;4985;49.092;8.542;2022-10-04T11:04:55;4.87;;;2.53;;
9892;SDS011;4985;49.092;8.542;2022-10-04T11:07:42;3.63;;;2.33;;
9892;SDS011;4985;49.092;8.542;2022-10-04T11:13:21;7.57;;;2.33;;
9892;SDS011;4985;49.092;8.542;2022-10-04T11:16:21;4.00;;;2.53;;
9892;SDS011;4985;49.092;8.542;2022-10-04T11:19:12;4.63;;;2.57;;
9892;SDS011;4985;49.092;8.542;2022-10-04T11:22:18;5.27;;;2.70;;
9892;SDS011;4985;49.092;8.542;2022-10-04T11:28:15;5.43;;;2.60;;
9892;SDS011;4985;49.092;8.542;2022-10-04T11:31:00;7.43;;;3.40;;
9892;SDS011;4985;49.092;8.542;2022-10-04T11:33:59;3.53;;;2.20;;
9892;SDS011;4985;49.092;8.542;2022-10-04T11:36:53;4.70;;;2.53;;
9892;SDS011;4985;49.092;8.542;2022-10-04T11:39:44;4.33;;;2.87;;
9892;SDS011;4985;49.092;8.542;2022-10-04T11:42:37;3.30;;;2.23;;
9892;SDS011;4985;49.092;8.542;2022-10-04T11:45:29;2.97;;;2.10;;
9892;SDS011;4985;49.092;8.542;2022-10-04T11:48:08;4.13;;;2.80;;
9892;SDS011;4985;49.092;8.542;2022-10-04T11:50:50;5.50;;;2.23;;
9892;SDS011;4985;49.092;8.542;2022-10-04T11:56:41;3.83;;;2.10;;
9892;SDS011;4985;49.092;8.542;2022-10-04T11:59:23;4.47;;;2.10;;
9892;SDS011;4985;49.092;8.542;2022-10-04T12:05:12;2.90;;;1.97;;
9892;SDS011;4985;49.092;8.542;2022-10-04T12:08:14;6.33;;;2.07;;
9892;SDS011;4985;49.092;8.542;2022-10-04T12:10:47;4.63;;;2.13;;
9892;SDS011;4985;49.092;8.542;2022-10-04T12:13:34;4.03;;;2.30;;
9892;SDS011;4985;49.092;8.542;2022-10-04T12:22:14;3.53;;;2.40;;
9892;SDS011;4985;49.092;8.542;2022-10-04T12:25:00;4.47;;;2.10;;
9892;SDS011;4985;49.092;8.542;2022-10-04T12:30:55;2.67;;;1.90;;
9892;SDS011;4985;49.092;8.542;2022-10-04T12:33:35;4.00;;;2.33;;
9892;SDS011;4985;49.092;8.542;2022-10-04T12:36:13;4.47;;;2.50;;
9892;SDS011;4985;49.092;8.542;2022-10-04T12:38:54;3.27;;;2.20;;
9892;SDS011;4985;49.092;8.542;2022-10-04T12:41:35;4.27;;;2.07;;
9892;SDS011;4985;49.092;8.542;2022-10-04T12:44:16;5.57;;;2.50;;
9892;SDS011;4985;49.092;8.542;2022-10-04T12:46:55;3.87;;;1.97;;
9892;SDS011;4985;49.092;8.542;2022-10-04T12:49:35;3.53;;;2.17;;
9892;SDS011;4985;49.092;8.542;2022-10-04T12:52:11;5.03;;;2.30;;
9892;SDS011;4985;49.092;8.542;2022-10-04T12:54:43;4.40;;;2.30;;
9892;SDS011;4985;49.092;8.542;2022-10-04T12:57:22;2.20;;;1.87;;
9892;SDS011;4985;49.092;8.542;2022-10-04T13:00:00;4.73;;;2.13;;
9892;SDS011;4985;49.092;8.542;2022-10-04T13:02:54;4.07;;;2.50;;
9892;SDS011;4985;49.092;8.542;2022-10-04T13:05:32;3.73;;;2.00;;
9892;SDS011;4985;49.092;8.542;2022-10-04T13:08:12;3.70;;;2.43;;
9892;SDS011;4985;49.092;8.542;2022-10-04T13:10:53;6.00;;;2.33;;
9892;SDS011;4985;49.092;8.542;2022-10-04T13:13:46;5.13;;;2.10;;
9892;SDS011;4985;49.092;8.542;2022-10-04T13:16:37;3.40;;;2.57;;
9892;SDS011;4985;49.092;8.542;2022-10-04T13:19:15;6.50;;;2.30;;
9892;SDS011;4985;49.092;8.542;2022-10-04T13:22:00;2.43;;;2.10;;
9892;SDS011;4985;49.092;8.542;2022-10-04T13:24:40;4.63;;;2.43;;
9892;SDS011;4985;49.092;8.542;2022-10-04T13:27:25;5.77;;;2.33;;
9892;SDS011;4985;49.092;8.542;2022-10-04T13:30:00;3.20;;;2.27;;
9892;SDS011;4985;49.092;8.542;2022-10-04T13:32:33;4.97;;;2.10;;
9892;SDS011;4985;49.092;8.542;2022-10-04T13:35:10;3.70;;;2.17;;
9892;SDS011;4985;49.092;8.542;2022-10-04T13:37:44;3.23;;;1.87;;
9892;SDS011;4985;49.092;8.542;2022-10-04T13:40:27;4.13;;;2.13;;
9892;SDS011;4985;49.092;8.542;2022-10-04T13:43:05;4.40;;;2.10;;
9892;SDS011;4985;49.092;8.542;2022-10-04T13:45:47;2.87;;;2.13;;
9892;SDS011;4985;49.092;8.542;2022-10-04T13:48:28;6.00;;;2.47;;
9892;SDS011;4985;49.092;8.542;2022-10-04T13:51:09;2.83;;;2.10;;
9892;SDS011;4985;49.092;8.542;2022-10-04T13:53:57;3.90;;;2.00;;
9892;SDS011;4985;49.092;8.542;2022-10-04T13:56:59;2.63;;;2.03;;
9892;SDS011;4985;49.092;8.542;2022-10-04T13:59:39;3.37;;;1.97;;
9892;SDS011;4985;49.092;8.542;2022-10-04T14:05:26;2.97;;;2.10;;
9892;SDS011;4985;49.092;8.542;2022-10-04T14:14:21;3.33;;;2.17;;
9892;SDS011;4985;49.092;8.542;2022-10-04T14:17:46;2.97;;;1.90;;
9892;SDS011;4985;49.092;8.542;2022-10-04T14:20:54;3.47;;;2.20;;
9892;SDS011;4985;49.092;8.542;2022-10-04T14:32:38;3.03;;;1.97;;
9892;SDS011;4985;49.092;8.542;2022-10-04T14:35:20;1.73;;;1.63;;
9892;SDS011;4985;49.092;8.542;2022-10-04T14:44:08;2.57;;;2.07;;
9892;SDS011;4985;49.092;8.542;2022-10-04T14:47:03;4.57;;;2.10;;
9892;SDS011;4985;49.092;8.542;2022-10-04T14:49:43;3.43;;;2.10;;
9892;SDS011;4985;49.092;8.542;2022-10-04T14:52:25;3.70;;;2.10;;
9892;SDS011;4985;49.092;8.542;2022-10-04T14:55:07;2.93;;;2.00;;
9892;SDS011;4985;49.092;8.542;2022-10-04T14:57:55;2.43;;;2.00;;
9892;SDS011;4985;49.092;8.542;2022-10-04T15:00:32;4.07;;;2.00;;
9892;SDS011;4985;49.092;8.542;2022-10-04T15:03:27;3.10;;;2.00;;
9892;SDS011;4985;49.092;8.542;2022-10-04T15:06:10;3.03;;;2.03;;
9892;SDS011;4985;49.092;8.542;2022-10-04T15:08:52;3.23;;;2.00;;
9892;SDS011;4985;49.092;8.542;2022-10-04T15:11:38;2.73;;;1.93;;
9892;SDS011;4985;49.092;8.542;2022-10-04T15:14:21;3.80;;;1.90;;
9892;SDS011;4985;49.092;8.542;2022-10-04T15:16:53;3.00;;;1.70;;
9892;SDS011;4985;49.092;8.542;2022-10-04T15:19:25;6.37;;;2.03;;
9892;SDS011;4985;49.092;8.542;2022-10-04T15:21:59;3.20;;;2.00;;
9892;SDS011;4985;49.092;8.542;2022-10-04T15:24:42;3.23;;;2.20;;
9892;SDS011;4985;49.092;8.542;2022-10-04T15:30:19;3.03;;;1.80;;
9892;SDS011;4985;49.092;8.542;2022-10-04T15:33:00;4.17;;;1.90;;
9892;SDS011;4985;49.092;8.542;2022-10-04T15:35:39;2.77;;;1.87;;
9892;SDS011;4985;49.092;8.542;2022-10-04T15:38:21;4.00;;;1.80;;
9892;SDS011;4985;49.092;8.542;2022-10-04T15:40:59;3.10;;;1.80;;
9892;SDS011;4985;49.092;8.542;2022-10-04T15:43:29;3.77;;;1.93;;
9892;SDS011;4985;49.092;8.542;2022-10-04T15:46:05;6.40;;;2.03;;
9892;SDS011;4985;49.092;8.542;2022-10-04T15:48:52;3.80;;;1.80;;
9892;SDS011;4985;49.092;8.542;2022-10-04T15:51:47;4.17;;;1.90;;
9892;SDS011;4985;49.092;8.542;2022-10-04T15:54:39;3.97;;;2.00;;
9892;SDS011;4985;49.092;8.542;2022-10-04T15:57:16;5.47;;;3.87;;
9892;SDS011;4985;49.092;8.542;2022-10-04T15:59:54;4.80;;;3.27;;
9892;SDS011;4985;49.092;8.542;2022-10-04T16:02:42;4.70;;;2.47;;
9892;SDS011;4985;49.092;8.542;2022-10-04T16:05:20;4.63;;;2.33;;
9892;SDS011;4985;49.092;8.542;2022-10-04T16:07:58;5.50;;;2.20;;
9892;SDS011;4985;49.092;8.542;2022-10-04T16:10:51;5.17;;;1.80;;
9892;SDS011;4985;49.092;8.542;2022-10-04T16:13:30;4.33;;;1.90;;
9892;SDS011;4985;49.092;8.542;2022-10-04T16:19:26;3.43;;;2.00;;
9892;SDS011;4985;49.092;8.542;2022-10-04T16:22:08;3.60;;;2.17;;
9892;SDS011;4985;49.092;8.542;2022-10-04T16:24:45;3.90;;;1.90;;
9892;SDS011;4985;49.092;8.542;2022-10-04T16:27:21;3.77;;;1.93;;
9892;SDS011;4985;49.092;8.542;2022-10-04T16:30:17;3.00;;;2.20;;
9892;SDS011;4985;49.092;8.542;2022-10-04T16:33:01;3.40;;;2.13;;
9892;SDS011;4985;49.092;8.542;2022-10-04T16:35:38;3.73;;;2.07;;
9892;SDS011;4985;49.092;8.542;2022-10-04T16:38:14;2.93;;;1.80;;
9892;SDS011;4985;49.092;8.542;2022-10-04T16:40:57;6.07;;;2.00;;
9892;SDS011;4985;49.092;8.542;2022-10-04T16:43:34;3.03;;;2.00;;
9892;SDS011;4985;49.092;8.542;2022-10-04T16:46:16;3.50;;;2.00;;
9892;SDS011;4985;49.092;8.542;2022-10-04T16:48:50;3.57;;;2.40;;
9892;SDS011;4985;49.092;8.542;2022-10-04T16:57:28;4.03;;;2.20;;
9892;SDS011;4985;49.092;8.542;2022-10-04T16:59:55;3.60;;;2.00;;
9892;SDS011;4985;49.092;8.542;2022-10-04T17:02:30;4.73;;;2.33;;
9892;SDS011;4985;49.092;8.542;2022-10-04T17:11:13;3.50;;;2.40;;
9892;SDS011;4985;49.092;8.542;2022-10-04T17:13:55;3.37;;;2.77;;
9892;SDS011;4985;49.092;8.542;2022-10-04T17:16:27;3.87;;;2.30;;
9892;SDS011;4985;49.092;8.542;2022-10-04T17:19:12;3.43;;;2.30;;
9892;SDS011;4985;49.092;8.542;2022-10-04T17:21:46;5.73;;;3.03;;
9892;SDS011;4985;49.092;8.542;2022-10-04T17:24:21;3.97;;;3.13;;
9892;SDS011;4985;49.092;8.542;2022-10-04T17:27:02;6.43;;;3.30;;
9892;SDS011;4985;49.092;8.542;2022-10-04T17:29:51;7.50;;;2.83;;
9892;SDS011;4985;49.092;8.542;2022-10-04T17:32:33;6.10;;;2.87;;
9892;SDS011;4985;49.092;8.542;2022-10-04T17:35:12;4.90;;;3.20;;
9892;SDS011;4985;49.092;8.542;2022-10-04T17:38:06;11.07;;;7.10;;
9892;SDS011;4985;49.092;8.542;2022-10-04T17:40:36;10.40;;;6.27;;
9892;SDS011;4985;49.092;8.542;2022-10-04T17:43:13;8.20;;;5.43;;
9892;SDS011;4985;49.092;8.542;2022-10-04T17:45:51;9.30;;;5.23;;
9892;SDS011;4985;49.092;8.542;2022-10-04T17:48:30;7.23;;;4.73;;
9892;SDS011;4985;49.092;8.542;2022-10-04T17:51:32;13.87;;;5.60;;
9892;SDS011;4985;49.092;8.542;2022-10-04T17:54:23;8.20;;;5.03;;
9892;SDS011;4985;49.092;8.542;2022-10-04T17:57:12;7.50;;;4.87;;
9892;SDS011;4985;49.092;8.542;2022-10-04T17:59:46;4.03;;;2.60;;
9892;SDS011;4985;49.092;8.542;2022-10-04T18:02:18;5.57;;;2.03;;
9892;SDS011;4985;49.092;8.542;2022-10-04T18:04:50;3.53;;;2.33;;
9892;SDS011;4985;49.092;8.542;2022-10-04T18:07:22;3.73;;;2.43;;
9892;SDS011;4985;49.092;8.542;2022-10-04T18:09:53;4.50;;;2.43;;
9892;SDS011;4985;49.092;8.542;2022-10-04T18:12:25;3.13;;;2.73;;
9892;SDS011;4985;49.092;8.542;2022-10-04T18:14:56;7.23;;;3.23;;
9892;SDS011;4985;49.092;8.542;2022-10-04T18:17:31;3.77;;;2.53;;
9892;SDS011;4985;49.092;8.542;2022-10-04T18:20:14;7.93;;;2.90;;
9892;SDS011;4985;49.092;8.542;2022-10-04T18:22:46;9.17;;;3.07;;
9892;SDS011;4985;49.092;8.542;2022-10-04T18:25:16;7.67;;;3.70;;
9892;SDS011;4985;49.092;8.542;2022-10-04T18:27:47;5.70;;;3.17;;